createdAt,value
2023-03-01T00:00:19.583Z,34.796000
2023-03-01T00:05:21.690Z,34.772000
2023-03-01T00:10:23.485Z,34.700000
2023-03-01T00:15:25.568Z,34.688000
2023-03-01T00:20:27.581Z,34.520000
2023-03-01T00:25:29.379Z,34.508000
2023-03-01T00:30:31.504Z,34.340000
2023-03-01T00:35:33.515Z,34.340000
2023-03-01T00:40:35.529Z,34.208000
2023-03-01T00:45:17.224Z,33.992000
2023-03-01T00:50:19.077Z,33.980000
2023-03-01T00:55:21.447Z,33.920000
2023-03-01T01:00:23.473Z,33.800000
2023-03-01T01:05:25.584Z,33.752000
2023-03-01T01:10:27.720Z,33.584000
2023-03-01T01:15:29.601Z,33.152000
2023-03-01T01:20:31.771Z,32.780000
2023-03-01T01:25:33.850Z,33.188000
2023-03-01T01:30:35.781Z,33.296000
2023-03-01T01:35:17.517Z,33.356000
2023-03-01T01:40:19.498Z,33.668000
2023-03-01T01:45:21.877Z,33.836000
2023-03-01T01:50:23.753Z,34.507143
2023-03-01T01:55:25.736Z,34.004000
2023-03-01T02:00:27.707Z,33.272000
2023-03-01T02:05:29.524Z,32.900000
2023-03-01T02:10:31.567Z,32.900000
2023-03-01T02:15:33.577Z,32.732000
2023-03-01T02:20:35.676Z,33.608000
2023-03-01T02:25:17.365Z,33.320000
2023-03-01T02:30:19.533Z,33.476000
2023-03-01T02:35:21.722Z,33.620000
2023-03-01T02:40:23.856Z,33.761429
2023-03-01T02:45:25.985Z,33.704000
2023-03-01T02:50:27.625Z,33.692000
2023-03-01T02:55:29.472Z,33.572000
2023-03-01T03:00:31.418Z,33.440000
2023-03-01T03:05:33.484Z,33.392000
2023-03-01T03:10:35.316Z,33.368000
2023-03-01T03:15:17.129Z,33.284000
2023-03-01T03:20:19.077Z,33.416000
2023-03-01T03:25:21.347Z,33.440000
2023-03-01T03:30:23.151Z,33.671429
2023-03-01T03:35:26.217Z,33.800000
2023-03-01T03:40:27.118Z,33.644000
2023-03-01T03:45:29.114Z,33.884000
2023-03-01T03:50:30.975Z,33.944000
2023-03-01T03:55:32.966Z,34.196000
2023-03-01T04:00:34.947Z,34.232000
2023-03-01T04:05:16.880Z,34.184000
2023-03-01T04:10:18.868Z,34.160000
2023-03-01T04:15:21.081Z,34.256000
2023-03-01T04:20:22.937Z,34.082857
2023-03-01T04:25:24.856Z,34.136000
2023-03-01T04:30:27.232Z,34.112000
2023-03-01T04:35:29.160Z,34.112000
2023-03-01T04:40:31.177Z,33.992000
2023-03-01T04:45:33.587Z,33.896000
2023-03-01T04:50:35.846Z,33.800000
2023-03-01T04:55:17.888Z,33.848000
2023-03-01T05:00:20.202Z,33.860000
2023-03-01T05:05:21.749Z,33.656000
2023-03-01T05:10:23.714Z,33.710000
2023-03-01T05:15:25.640Z,33.656000
2023-03-01T05:20:27.814Z,33.728000
2023-03-01T05:25:29.695Z,33.656000
2023-03-01T05:30:31.794Z,33.752000
2023-03-01T05:35:33.933Z,34.136000
2023-03-01T05:40:35.557Z,34.004000
2023-03-01T05:45:17.425Z,33.776000
2023-03-01T05:50:19.857Z,33.608000
2023-03-01T05:55:21.729Z,33.440000
2023-03-01T06:00:23.803Z,33.440000
2023-03-01T06:05:25.920Z,33.440000
2023-03-01T06:10:28.028Z,33.440000
2023-03-01T06:15:29.960Z,33.560000
2023-03-01T06:20:32.195Z,33.620000
2023-03-01T06:25:34.513Z,33.740000
2023-03-01T06:30:16.426Z,33.800000
2023-03-01T06:35:19.044Z,33.956000
2023-03-01T06:40:21.081Z,34.448000
2023-03-01T06:45:23.445Z,34.700000
2023-03-01T06:50:25.605Z,34.700000
2023-03-01T06:55:27.435Z,34.700000
2023-03-01T07:00:29.676Z,34.700000
2023-03-01T07:05:32.076Z,34.844000
2023-03-01T07:10:33.708Z,34.700000
2023-03-01T07:15:35.884Z,34.616000
2023-03-01T07:20:17.945Z,34.556000
2023-03-01T07:25:20.028Z,34.700000
2023-03-01T07:30:21.798Z,34.700000
2023-03-01T07:35:24.582Z,34.918571
2023-03-01T07:40:26.333Z,35.048000
2023-03-01T07:45:28.838Z,35.204000
2023-03-01T07:50:31.295Z,35.396000
2023-03-01T07:55:33.323Z,35.348000
2023-03-01T08:00:35.354Z,35.204000
2023-03-01T08:05:17.368Z,35.084000
2023-03-01T08:10:19.741Z,35.240000
2023-03-01T08:15:21.733Z,35.288000
2023-03-01T08:20:24.001Z,35.728571
2023-03-01T08:25:26.132Z,35.624000
2023-03-01T08:30:28.646Z,35.948000
2023-03-01T08:35:30.766Z,35.984000
2023-03-01T08:40:32.603Z,36.140000
2023-03-01T08:45:34.887Z,36.116000
2023-03-01T08:50:16.599Z,36.020000
2023-03-01T08:55:18.922Z,36.200000
2023-03-01T09:00:20.950Z,36.272000
2023-03-01T09:05:23.223Z,36.204286
2023-03-01T09:10:25.264Z,36.140000
2023-03-01T09:15:27.223Z,35.996000
2023-03-01T09:20:29.405Z,35.804000
2023-03-01T09:25:31.361Z,35.912000
2023-03-01T09:30:33.709Z,35.912000
2023-03-01T09:35:36.372Z,35.960000
2023-03-01T09:40:18.000Z,35.828000
2023-03-01T09:45:20.230Z,35.960000
2023-03-01T09:50:22.417Z,36.114286
2023-03-01T09:55:24.628Z,36.224000
2023-03-01T10:00:26.955Z,36.320000
2023-03-01T10:05:29.420Z,36.200000
2023-03-01T10:10:31.739Z,36.152000
2023-03-01T10:15:33.692Z,36.188000
2023-03-01T10:20:36.211Z,36.140000
2023-03-01T10:25:17.398Z,35.240000
2023-03-01T10:30:19.550Z,34.472000
2023-03-01T10:35:21.464Z,34.280000
2023-03-01T10:40:23.876Z,34.314286
2023-03-01T10:45:26.764Z,34.592000
2023-03-01T10:50:27.709Z,34.544000
2023-03-01T10:55:30.149Z,35.252000
2023-03-01T11:00:32.460Z,35.228000
2023-03-01T11:05:35.032Z,34.184000
2023-03-01T11:10:16.740Z,33.848000
2023-03-01T11:15:19.089Z,33.800000
2023-03-01T11:20:20.849Z,33.932000
2023-03-01T11:25:23.011Z,33.980000
2023-03-01T11:30:25.275Z,33.956000
2023-03-01T11:35:27.568Z,33.800000
2023-03-01T11:40:29.440Z,33.788000
2023-03-01T11:45:31.584Z,33.560000
2023-03-01T11:50:33.700Z,33.548000
2023-03-01T11:55:16.232Z,33.428000
2023-03-01T12:00:18.512Z,33.296000
2023-03-01T12:05:20.876Z,33.344000
2023-03-01T12:10:22.836Z,33.157143
2023-03-01T12:15:25.658Z,33.080000
2023-03-01T12:20:26.775Z,33.080000
2023-03-01T12:25:28.855Z,32.912000
2023-03-01T12:30:30.795Z,32.732000
2023-03-01T12:35:32.878Z,32.720000
2023-03-01T12:40:35.229Z,32.636000
2023-03-01T12:45:16.706Z,32.396000
2023-03-01T12:50:18.702Z,32.504000
2023-03-01T12:55:20.697Z,32.432000
2023-03-01T13:00:23.273Z,32.244286
2023-03-01T13:05:25.319Z,32.144000
2023-03-01T13:10:27.145Z,31.880000
2023-03-01T13:15:29.429Z,31.700000
2023-03-01T13:20:32.207Z,31.784000
2023-03-01T13:25:42.502Z,31.520000
2023-03-01T13:30:16.743Z,31.460000
2023-03-01T13:35:19.334Z,31.436000
2023-03-01T13:40:21.602Z,31.340000
2023-03-01T13:45:23.816Z,31.742857
2023-03-01T13:50:25.833Z,31.712000
2023-03-01T13:55:28.128Z,32.012000
2023-03-01T14:00:30.347Z,32.708000
2023-03-01T14:05:32.472Z,33.068000
2023-03-01T14:10:34.095Z,33.080000
2023-03-01T14:15:16.086Z,32.696000
2023-03-01T14:20:18.023Z,32.756000
2023-03-01T14:25:19.940Z,33.572000
2023-03-01T14:30:22.669Z,33.668000
2023-03-01T14:35:24.100Z,33.620000
2023-03-01T14:40:26.393Z,33.776000
2023-03-01T14:45:28.288Z,33.800000
2023-03-01T14:50:30.343Z,33.956000
2023-03-01T14:55:32.475Z,34.244000
2023-03-01T15:00:34.398Z,34.340000
2023-03-01T15:05:16.190Z,34.448000
2023-03-01T15:10:18.188Z,34.268000
2023-03-01T15:15:20.223Z,34.076000
2023-03-01T15:20:22.317Z,33.697143
2023-03-01T15:25:24.254Z,33.620000
2023-03-01T15:30:26.471Z,33.536000
2023-03-01T15:35:28.305Z,33.644000
2023-03-01T15:40:30.485Z,33.968000
2023-03-01T15:45:32.504Z,33.968000
2023-03-01T15:50:34.348Z,33.200000
2023-03-01T15:55:16.189Z,32.324000
2023-03-01T16:00:18.133Z,31.892000
2023-03-01T16:05:20.214Z,31.820000
2023-03-01T16:10:22.180Z,31.820000
2023-03-01T16:15:24.839Z,31.832000
2023-03-01T16:20:29.210Z,31.928000
2023-03-01T16:25:29.076Z,32.000000
2023-03-01T16:30:31.235Z,32.036000
2023-03-01T16:35:33.108Z,32.180000
2023-03-01T16:40:35.261Z,32.180000
2023-03-01T16:45:25.401Z,32.108000
2023-03-01T16:50:19.170Z,32.180000
2023-03-01T16:55:21.492Z,32.180000
2023-03-01T17:00:23.332Z,32.282857
2023-03-01T17:05:25.168Z,32.180000
2023-03-01T17:10:27.120Z,32.348000
2023-03-01T17:15:28.919Z,32.504000
2023-03-01T17:20:31.240Z,32.576000
2023-03-01T17:25:33.324Z,33.140000
2023-03-01T17:30:35.195Z,33.440000
2023-03-01T17:35:16.870Z,33.884000
2023-03-01T17:40:18.781Z,34.052000
2023-03-01T17:45:20.732Z,33.644000
2023-03-01T17:50:22.650Z,34.082857
2023-03-01T17:55:24.482Z,34.160000
2023-03-01T18:00:26.986Z,34.292000
2023-03-01T18:05:29.151Z,34.316000
2023-03-01T18:10:31.088Z,34.664000
2023-03-01T18:15:32.964Z,34.004000
2023-03-01T18:20:34.706Z,33.656000
2023-03-01T18:25:16.841Z,33.764000
2023-03-01T18:30:18.860Z,34.004000
2023-03-01T18:35:20.883Z,34.160000
2023-03-01T18:40:23.817Z,33.851429
2023-03-01T18:45:24.728Z,33.332000
2023-03-01T18:50:26.611Z,33.956000
2023-03-01T18:55:28.707Z,33.908000
2023-03-01T19:00:31.195Z,34.076000
2023-03-01T19:05:33.591Z,33.944000
2023-03-01T19:10:35.712Z,34.544000
2023-03-01T19:15:17.253Z,34.760000
2023-03-01T19:20:19.231Z,35.216000
2023-03-01T19:25:21.297Z,35.480000
2023-03-01T19:30:23.098Z,35.072857
2023-03-01T19:35:25.043Z,35.000000
2023-03-01T19:40:27.952Z,34.784000
2023-03-01T19:45:33.558Z,35.240000
2023-03-01T19:50:30.738Z,35.156000
2023-03-01T19:55:32.735Z,35.504000
2023-03-01T20:00:34.786Z,36.464000
2023-03-01T20:05:16.348Z,36.548000
2023-03-01T20:10:18.406Z,36.188000
2023-03-01T20:15:20.499Z,35.840000
2023-03-01T20:20:22.295Z,35.741429
2023-03-01T20:25:24.708Z,35.924000
2023-03-01T20:30:26.659Z,35.984000
2023-03-01T20:35:28.948Z,36.524000
2023-03-01T20:40:31.116Z,35.744000
2023-03-01T20:45:33.319Z,36.284000
2023-03-01T20:50:35.366Z,36.524000
2023-03-01T20:55:17.126Z,36.080000
2023-03-01T21:00:19.366Z,36.200000
2023-03-01T21:05:21.515Z,35.936000
2023-03-01T21:10:23.493Z,35.818571
2023-03-01T21:15:28.345Z,34.892000
2023-03-01T21:20:27.458Z,34.724000
2023-03-01T21:25:29.371Z,34.568000
2023-03-01T21:30:31.388Z,33.992000
2023-03-01T21:35:33.659Z,33.860000
2023-03-01T21:40:35.588Z,34.352000
2023-03-01T21:45:17.476Z,34.400000
2023-03-01T21:50:19.570Z,34.352000
2023-03-01T21:55:21.615Z,34.088000
2023-03-01T22:00:23.555Z,34.352857
2023-03-01T22:05:25.497Z,34.460000
2023-03-01T22:10:27.500Z,34.724000
2023-03-01T22:15:29.277Z,34.232000
2023-03-01T22:20:31.486Z,34.496000
2023-03-01T22:25:33.521Z,34.724000
2023-03-01T22:30:35.501Z,34.856000
2023-03-01T22:35:17.204Z,34.760000
2023-03-01T22:40:19.354Z,34.688000
2023-03-01T22:45:21.219Z,34.664000
2023-03-01T22:50:23.381Z,34.352857
2023-03-01T22:55:25.227Z,34.292000
2023-03-01T23:00:27.325Z,34.280000
2023-03-01T23:05:29.216Z,34.640000
2023-03-01T23:10:31.263Z,34.808000
2023-03-01T23:15:33.811Z,34.964000
2023-03-01T23:20:35.486Z,36.128000
2023-03-01T23:25:17.434Z,36.524000
2023-03-01T23:30:19.286Z,36.260000
2023-03-01T23:35:21.443Z,36.344000
2023-03-01T23:40:22.949Z,36.410000
2023-03-01T23:45:24.793Z,35.912000
2023-03-01T23:50:27.136Z,35.348000
2023-03-01T23:55:28.869Z,35.204000
